MMZH/ZIH METAR and TAF weather

Enter ICAO airport designator
Station Type Date Time Source
MMZH METAR 2022/11/30 17:45 UTC NOAA

MMZH 301745Z 24007KT 7SM FEW020 31/23 A2991 RMK SLP120 52004 904 8/100 HZY


Station Type Date Time Source
MMZH Decoded METAR 2022/11/30 17:45 UTC NOAA

Ixtapa-Zihuatanejo, Mexico (MMZH) 17-36N 101-28W
Nov 30, 2022 - 12:45 PM EST / 2022.11.30 1745 UTC
Wind: from the WSW (240 degrees) at 8 MPH (7 KT):0
Visibility: 7 mile(s):0
Sky conditions: mostly clear
Temperature: 87 F (31 C)
Heat index: 93.9 F (34.4 C):1
Dew Point: 73 F (23 C)
Relative Humidity: 62%
Pressure (altimeter): 29.91 in. Hg (1012 hPa)
Pressure tendency: 0.01 inches (0.4 hPa) higher than three hours ago
ob: MMZH 301745Z 24007KT 7SM FEW020 31/23 A2991 RMK SLP120 52004 904 8/100 HZY
cycle: 18

Station Type Date Time Source
MMZH TAF 2022/11/30 06:57 UTC NOAA

TAF TAF MMZH 300454Z 3006/0106 00000KT P6SM SCT090 BKN250
FM301600 22010KT P6SM SKC
FM010300 00000KT P6SM SCT100 SCT250

Example: see airport list